createdAt,value
2022-11-06T00:01:28.122Z,68.32
2022-11-06T00:03:55.751Z,68.17
2022-11-06T00:06:42.738Z,68.20
2022-11-06T00:09:12.753Z,67.88
2022-11-06T00:11:40.881Z,67.77
2022-11-06T00:14:08.886Z,67.51
2022-11-06T00:16:40.453Z,67.51
2022-11-06T00:19:08.251Z,68.45
2022-11-06T00:21:36.149Z,67.77
2022-11-06T00:24:06.129Z,68.11
2022-11-06T00:26:34.232Z,67.88
2022-11-06T00:29:02.409Z,68.37
2022-11-06T00:31:32.127Z,67.84
2022-11-06T00:34:00.758Z,67.51
2022-11-06T00:36:32.453Z,67.47
2022-11-06T00:39:00.215Z,67.62
2022-11-06T00:41:28.371Z,67.96
2022-11-06T00:43:58.182Z,67.84
2022-11-06T00:46:25.911Z,68.26
2022-11-06T00:48:54.192Z,68.07
2022-11-06T00:51:29.964Z,67.76
2022-11-06T00:54:00.307Z,67.80
2022-11-06T00:56:28.118Z,67.33
2022-11-06T00:58:55.455Z,67.32
2022-11-06T01:01:31.316Z,67.74
2022-11-06T01:04:00.995Z,67.31
2022-11-06T01:06:31.409Z,67.18
2022-11-06T01:08:59.278Z,67.75
2022-11-06T01:12:06.709Z,67.68
2022-11-06T01:14:28.172Z,68.15
2022-11-06T01:16:55.500Z,67.66
2022-11-06T01:19:23.736Z,67.57
2022-11-06T01:21:53.006Z,67.64
2022-11-06T01:24:26.329Z,67.54
2022-11-06T01:27:24.341Z,67.37
2022-11-06T01:29:41.569Z,67.26
2022-11-06T01:32:09.458Z,67.04
2022-11-06T01:34:36.849Z,67.33
2022-11-06T01:37:04.408Z,67.37
2022-11-06T01:39:32.026Z,66.96
2022-11-06T01:41:59.416Z,67.16
2022-11-06T01:44:36.017Z,67.27
2022-11-06T01:47:05.656Z,66.88
2022-11-06T01:49:36.385Z,67.52
2022-11-06T01:52:09.355Z,67.17
2022-11-06T01:54:38.966Z,67.68
2022-11-06T01:57:07.262Z,67.52
2022-11-06T01:59:36.847Z,67.71
2022-11-06T02:02:04.866Z,67.60
2022-11-06T02:04:36.177Z,68.11
2022-11-06T02:07:04.014Z,67.47
2022-11-06T02:09:33.354Z,67.76
2022-11-06T02:12:24.262Z,67.94
2022-11-06T02:15:13.394Z,68.27
2022-11-06T02:17:47.900Z,68.01
2022-11-06T02:20:29.333Z,68.11
2022-11-06T02:23:02.437Z,67.97
2022-11-06T02:25:48.716Z,68.15
2022-11-06T02:28:24.906Z,68.17
2022-11-06T02:30:53.498Z,67.78
2022-11-06T02:33:34.491Z,67.82
2022-11-06T02:36:08.837Z,67.77
2022-11-06T02:38:45.363Z,67.69
2022-11-06T02:41:17.095Z,67.88
2022-11-06T02:43:47.250Z,67.95
2022-11-06T02:46:37.722Z,67.91
2022-11-06T02:49:11.060Z,68.67
2022-11-06T02:51:42.642Z,68.46
2022-11-06T02:54:10.765Z,68.36
2022-11-06T02:56:42.166Z,68.57
2022-11-06T02:59:16.969Z,68.82
2022-11-06T03:01:48.411Z,68.64
2022-11-06T03:04:20.335Z,68.77
2022-11-06T03:07:00.034Z,68.70
2022-11-06T03:09:29.503Z,68.74
2022-11-06T03:12:14.822Z,68.84
2022-11-06T03:14:50.474Z,69.05
2022-11-06T03:17:24.472Z,69.12
2022-11-06T03:20:01.653Z,68.36
2022-11-06T03:22:40.483Z,68.82
2022-11-06T03:25:18.703Z,68.54
2022-11-06T03:28:04.420Z,68.66
2022-11-06T03:30:40.641Z,68.04
2022-11-06T03:33:18.534Z,68.48
2022-11-06T03:35:50.701Z,68.28
2022-11-06T03:38:36.139Z,68.09
2022-11-06T03:41:11.351Z,68.26
2022-11-06T03:43:41.168Z,68.32
2022-11-06T03:46:15.632Z,68.98
2022-11-06T03:48:48.010Z,68.35
2022-11-06T03:51:22.582Z,68.48
2022-11-06T03:54:02.795Z,68.65
2022-11-06T03:57:01.658Z,68.24
2022-11-06T03:59:33.891Z,67.94
2022-11-06T04:02:01.466Z,68.08
2022-11-06T04:04:46.119Z,68.04
2022-11-06T04:07:17.459Z,67.91
2022-11-06T04:10:05.987Z,68.44
2022-11-06T04:12:53.442Z,68.47
2022-11-06T04:15:21.715Z,68.15
2022-11-06T04:17:49.031Z,68.75
2022-11-06T04:20:39.535Z,68.77
2022-11-06T04:23:36.721Z,68.41
2022-11-06T04:26:36.121Z,69.48
2022-11-06T04:29:12.794Z,69.34
2022-11-06T04:32:12.657Z,68.81
2022-11-06T04:34:46.912Z,69.29
2022-11-06T04:37:32.095Z,68.96
2022-11-06T04:40:12.615Z,69.13
2022-11-06T04:42:56.723Z,69.07
2022-11-06T04:45:31.076Z,69.05
2022-11-06T04:47:59.741Z,69.04
2022-11-06T04:50:29.101Z,69.49
2022-11-06T04:52:56.486Z,68.87
2022-11-06T04:55:24.107Z,68.83
2022-11-06T04:57:51.666Z,68.65
2022-11-06T05:00:19.003Z,69.08
2022-11-06T05:02:46.338Z,69.24
2022-11-06T05:05:13.915Z,68.74
2022-11-06T05:07:41.251Z,69.33
2022-11-06T05:10:09.681Z,68.92
2022-11-06T05:12:37.244Z,68.89
2022-11-06T05:15:04.850Z,68.87
2022-11-06T05:17:36.297Z,68.96
2022-11-06T05:20:05.256Z,69.16
2022-11-06T05:22:51.096Z,68.93
2022-11-06T05:25:18.652Z,68.50
2022-11-06T05:27:45.941Z,69.10
2022-11-06T05:30:13.332Z,69.19
2022-11-06T05:32:40.867Z,68.60
2022-11-06T05:35:08.490Z,69.26
2022-11-06T05:37:35.821Z,68.78
2022-11-06T05:40:03.674Z,68.59
2022-11-06T05:42:30.962Z,68.73
2022-11-06T05:44:58.260Z,69.02
2022-11-06T05:47:25.813Z,68.58
2022-11-06T05:49:53.106Z,68.44
2022-11-06T05:52:20.474Z,68.28
2022-11-06T05:54:48.037Z,67.94
2022-11-06T05:57:15.401Z,68.47
2022-11-06T05:59:42.806Z,68.01
2022-11-06T06:02:10.706Z,68.06
2022-11-06T06:04:38.407Z,67.86
2022-11-06T06:07:05.708Z,67.92
2022-11-06T06:09:33.021Z,67.61
2022-11-06T06:12:00.637Z,67.80
2022-11-06T06:14:27.938Z,68.12
2022-11-06T06:16:55.230Z,67.92
2022-11-06T06:19:22.785Z,67.75
2022-11-06T06:21:50.079Z,68.20
2022-11-06T06:24:17.519Z,68.46
2022-11-06T06:26:45.236Z,67.93
2022-11-06T06:29:12.533Z,67.60
2022-11-06T06:31:39.873Z,67.25
2022-11-06T06:34:07.542Z,67.69
2022-11-06T06:36:34.920Z,67.84
2022-11-06T06:39:02.219Z,67.99
2022-11-06T06:41:29.810Z,68.48
2022-11-06T06:43:57.107Z,67.93
2022-11-06T06:46:24.434Z,68.10
2022-11-06T06:48:52.001Z,68.11
2022-11-06T06:51:23.756Z,68.30
2022-11-06T06:53:52.034Z,68.84
2022-11-06T06:56:19.398Z,69.26
2022-11-06T06:58:46.842Z,68.28
2022-11-06T07:01:14.629Z,68.18
2022-11-06T07:03:42.046Z,68.23
2022-11-06T07:06:09.350Z,68.68
2022-11-06T07:08:37.259Z,67.75
2022-11-06T07:11:07.154Z,68.83
2022-11-06T07:13:36.366Z,69.00
2022-11-06T07:16:09.140Z,68.50
2022-11-06T07:18:37.831Z,68.45
2022-11-06T07:21:09.850Z,68.39
2022-11-06T07:23:37.197Z,69.72
2022-11-06T07:26:05.974Z,68.83
2022-11-06T07:28:33.578Z,68.43
2022-11-06T07:31:02.540Z,69.05
2022-11-06T07:33:30.316Z,68.79
2022-11-06T07:36:05.823Z,68.58
2022-11-06T07:38:34.927Z,68.80
2022-11-06T07:41:04.497Z,68.75
2022-11-06T07:43:32.061Z,68.75
2022-11-06T07:46:01.649Z,68.80
2022-11-06T07:48:29.997Z,68.66
2022-11-06T07:50:57.879Z,68.68
2022-11-06T07:53:25.526Z,69.54
2022-11-06T07:55:54.864Z,68.97
2022-11-06T07:58:23.753Z,68.91
2022-11-06T08:00:53.312Z,69.11
2022-11-06T08:03:21.757Z,68.72
2022-11-06T08:05:49.514Z,68.81
2022-11-06T08:08:17.078Z,68.22
2022-11-06T08:10:44.737Z,68.38
2022-11-06T08:13:13.220Z,68.49
2022-11-06T08:15:41.331Z,68.64
2022-11-06T08:18:09.942Z,68.31
2022-11-06T08:20:39.043Z,68.59
2022-11-06T08:23:08.599Z,68.42
2022-11-06T08:25:36.228Z,68.46
2022-11-06T08:28:03.870Z,69.00
2022-11-06T08:30:32.056Z,69.39
2022-11-06T08:33:05.163Z,68.91
2022-11-06T08:35:34.184Z,68.69
2022-11-06T08:38:02.377Z,68.50
2022-11-06T08:40:31.338Z,68.57
2022-11-06T08:43:00.348Z,68.65
2022-11-06T08:45:28.186Z,67.82
2022-11-06T08:47:55.481Z,68.08
2022-11-06T08:50:22.786Z,68.04
2022-11-06T08:52:50.339Z,67.91
2022-11-06T08:55:17.647Z,67.59
2022-11-06T08:57:44.934Z,67.67
2022-11-06T09:00:13.134Z,67.56
2022-11-06T09:02:40.438Z,67.31
2022-11-06T09:05:08.623Z,67.52
2022-11-06T09:07:36.210Z,67.59
2022-11-06T09:10:04.156Z,67.62
2022-11-06T09:12:31.532Z,67.44
2022-11-06T09:14:59.119Z,67.71
2022-11-06T09:17:26.481Z,67.37
2022-11-06T09:19:53.834Z,68.19
2022-11-06T09:22:21.430Z,67.83
2022-11-06T09:25:03.047Z,67.21
2022-11-06T09:27:31.695Z,66.92
2022-11-06T09:29:59.042Z,66.85
2022-11-06T09:32:26.350Z,66.94
2022-11-06T09:34:53.990Z,66.73
2022-11-06T09:37:21.309Z,66.83
2022-11-06T09:39:48.625Z,66.89
2022-11-06T09:42:29.445Z,66.44
2022-11-06T09:45:11.851Z,66.11
2022-11-06T09:47:41.895Z,65.90
2022-11-06T09:50:16.709Z,65.65
2022-11-06T09:52:53.652Z,66.28
2022-11-06T09:55:23.571Z,66.37
2022-11-06T09:58:05.463Z,65.97
2022-11-06T10:00:32.785Z,66.30
2022-11-06T10:03:14.471Z,66.14
2022-11-06T10:05:43.003Z,66.55
2022-11-06T10:08:17.438Z,66.37
2022-11-06T10:11:16.474Z,65.92
2022-11-06T10:13:44.051Z,66.02
2022-11-06T10:16:22.606Z,66.15
2022-11-06T10:19:07.825Z,66.14
2022-11-06T10:21:49.501Z,65.08
2022-11-06T10:24:20.094Z,64.75
2022-11-06T10:26:55.887Z,64.88
2022-11-06T10:29:49.314Z,64.88
2022-11-06T10:32:34.773Z,65.26
2022-11-06T10:35:12.154Z,64.32
2022-11-06T10:37:48.680Z,64.73
2022-11-06T10:40:23.407Z,65.07
2022-11-06T10:43:00.223Z,64.67
2022-11-06T10:45:28.619Z,64.75
2022-11-06T10:48:00.175Z,64.60
2022-11-06T10:50:37.145Z,64.36
2022-11-06T10:53:09.339Z,64.30
2022-11-06T10:55:41.997Z,64.19
2022-11-06T10:58:29.995Z,64.13
2022-11-06T11:01:01.726Z,64.08
2022-11-06T11:03:52.354Z,64.19
2022-11-06T11:06:19.991Z,64.14
2022-11-06T11:08:49.034Z,64.76
2022-11-06T11:11:20.546Z,65.18
2022-11-06T11:14:14.331Z,64.72
2022-11-06T11:16:45.008Z,64.37
2022-11-06T11:19:38.298Z,64.52
2022-11-06T11:22:21.164Z,64.36
2022-11-06T11:25:02.772Z,64.63
2022-11-06T11:27:32.339Z,64.54
2022-11-06T11:30:00.025Z,64.46
2022-11-06T11:32:29.310Z,64.44
2022-11-06T11:34:57.368Z,64.00
2022-11-06T11:37:30.072Z,64.23
2022-11-06T11:40:29.375Z,64.16
2022-11-06T11:43:15.957Z,64.90
2022-11-06T11:45:43.310Z,64.90
2022-11-06T11:48:14.154Z,64.56
2022-11-06T11:50:41.730Z,65.18
2022-11-06T11:53:18.525Z,64.69
2022-11-06T11:55:48.625Z,64.35
2022-11-06T11:58:20.862Z,64.42
2022-11-06T12:00:52.000Z,64.14
2022-11-06T12:03:20.657Z,64.86
2022-11-06T12:05:48.105Z,64.53
2022-11-06T12:08:24.058Z,63.16
2022-11-06T12:10:51.801Z,63.34
2022-11-06T12:13:24.019Z,63.55
2022-11-06T12:16:00.374Z,64.39
2022-11-06T12:18:34.416Z,63.76
2022-11-06T12:21:23.240Z,63.36
2022-11-06T12:23:56.382Z,63.43
2022-11-06T12:26:40.047Z,63.67
2022-11-06T12:29:24.767Z,63.99
2022-11-06T12:31:56.802Z,63.42
2022-11-06T12:34:35.423Z,63.58
2022-11-06T12:37:15.192Z,63.47
2022-11-06T12:39:44.527Z,63.67
2022-11-06T12:42:12.710Z,63.95
2022-11-06T12:44:40.120Z,63.76
2022-11-06T12:47:43.042Z,63.87
2022-11-06T12:50:46.044Z,63.44
2022-11-06T12:53:27.584Z,63.48
2022-11-06T12:56:12.931Z,63.22
2022-11-06T12:58:45.392Z,62.98
2022-11-06T13:01:43.992Z,62.83
2022-11-06T13:04:26.420Z,63.15
2022-11-06T13:07:13.429Z,63.30
2022-11-06T13:10:03.804Z,63.63
2022-11-06T13:12:44.091Z,63.44
2022-11-06T13:15:22.142Z,63.58
2022-11-06T13:18:00.520Z,63.69
2022-11-06T13:20:43.847Z,63.65
2022-11-06T13:23:29.565Z,63.64
2022-11-06T13:26:05.527Z,63.77
2022-11-06T13:28:47.289Z,63.59
2022-11-06T13:31:17.909Z,63.57
2022-11-06T13:33:49.456Z,63.23
2022-11-06T13:36:18.665Z,63.06
2022-11-06T13:39:21.242Z,63.04
2022-11-06T13:41:48.661Z,63.09
2022-11-06T13:44:17.083Z,63.15
2022-11-06T13:46:56.875Z,62.84
2022-11-06T13:49:55.920Z,63.13
2022-11-06T13:52:51.624Z,62.06
2022-11-06T13:55:36.571Z,62.96
2022-11-06T13:58:28.289Z,63.21
2022-11-06T14:01:14.761Z,63.09
2022-11-06T14:04:12.612Z,63.20
2022-11-06T14:06:40.816Z,62.86
2022-11-06T14:09:19.361Z,63.04
2022-11-06T14:11:53.423Z,63.44
2022-11-06T14:14:20.863Z,63.21
2022-11-06T14:17:09.784Z,63.67
2022-11-06T14:19:37.983Z,63.69
2022-11-06T14:22:08.345Z,63.64
2022-11-06T14:24:36.961Z,63.44
2022-11-06T14:27:08.957Z,63.84
2022-11-06T14:29:36.116Z,63.74
2022-11-06T14:32:16.820Z,64.52
2022-11-06T14:34:44.462Z,64.40
2022-11-06T14:37:17.773Z,64.76
2022-11-06T14:39:51.579Z,64.23
2022-11-06T14:42:30.384Z,64.91
2022-11-06T14:45:11.936Z,64.97
2022-11-06T14:47:41.472Z,64.52
2022-11-06T14:50:18.062Z,64.91
2022-11-06T14:52:51.038Z,64.96
2022-11-06T14:55:41.035Z,65.38
2022-11-06T14:58:18.812Z,65.14
2022-11-06T15:00:51.180Z,65.41
2022-11-06T15:03:38.563Z,65.21
2022-11-06T15:06:17.950Z,65.15
2022-11-06T15:08:45.189Z,64.92
2022-11-06T15:11:30.901Z,64.44
2022-11-06T15:14:06.126Z,64.75
2022-11-06T15:16:43.457Z,64.47
2022-11-06T15:19:26.493Z,63.94
2022-11-06T15:22:12.232Z,64.17
2022-11-06T15:24:52.485Z,64.11
2022-11-06T15:27:22.574Z,64.15
2022-11-06T15:29:52.822Z,64.27
2022-11-06T15:32:26.312Z,64.10
2022-11-06T15:35:01.362Z,64.06
2022-11-06T15:37:37.912Z,64.30
2022-11-06T15:40:05.853Z,63.75
2022-11-06T15:42:37.239Z,63.80
2022-11-06T15:45:12.748Z,63.83
2022-11-06T15:47:40.536Z,64.16
2022-11-06T15:50:19.642Z,64.00
2022-11-06T15:52:48.742Z,63.89
2022-11-06T15:55:25.658Z,64.12
2022-11-06T15:57:53.918Z,64.05
2022-11-06T16:00:24.489Z,63.95
2022-11-06T16:02:57.790Z,64.31
2022-11-06T16:05:27.675Z,64.65
2022-11-06T16:07:56.711Z,64.80
2022-11-06T16:10:24.416Z,64.72
2022-11-06T16:12:53.915Z,65.14
2022-11-06T16:15:49.649Z,65.12
2022-11-06T16:18:35.703Z,64.84
2022-11-06T16:21:11.603Z,64.89
2022-11-06T16:23:45.001Z,64.76
2022-11-06T16:26:15.856Z,65.00
2022-11-06T16:28:44.584Z,65.28
2022-11-06T16:31:18.033Z,64.98
2022-11-06T16:34:02.470Z,65.17
2022-11-06T16:36:31.836Z,65.38
2022-11-06T16:39:17.723Z,65.45
2022-11-06T16:42:25.641Z,65.50
2022-11-06T16:45:08.071Z,65.64
2022-11-06T16:47:35.922Z,65.71
2022-11-06T16:50:06.929Z,65.54
2022-11-06T16:52:38.732Z,65.75
2022-11-06T16:55:17.029Z,65.46
2022-11-06T16:57:53.442Z,65.64
2022-11-06T17:00:20.947Z,66.10
2022-11-06T17:02:54.658Z,65.80
2022-11-06T17:05:24.515Z,66.13
2022-11-06T17:08:29.054Z,65.83
2022-11-06T17:10:57.954Z,65.63
2022-11-06T17:13:31.642Z,65.62
2022-11-06T17:16:04.669Z,65.67
2022-11-06T17:18:34.417Z,65.27
2022-11-06T17:21:04.950Z,65.07
2022-11-06T17:23:33.456Z,64.98
2022-11-06T17:26:06.830Z,64.67
2022-11-06T17:28:34.401Z,64.81
2022-11-06T17:31:02.932Z,64.88
2022-11-06T17:33:30.227Z,64.82
2022-11-06T17:35:57.843Z,64.81
2022-11-06T17:38:25.139Z,64.86
2022-11-06T17:40:52.445Z,64.49
2022-11-06T17:43:20.039Z,64.68
2022-11-06T17:45:49.852Z,64.15
2022-11-06T17:48:18.226Z,64.49
2022-11-06T17:51:04.510Z,64.58
2022-11-06T17:53:32.060Z,64.32
2022-11-06T17:56:03.785Z,64.40
2022-11-06T17:58:31.290Z,64.49
2022-11-06T18:01:10.134Z,64.59
2022-11-06T18:03:43.402Z,64.20
2022-11-06T18:06:12.014Z,64.18
2022-11-06T18:08:39.778Z,64.98
2022-11-06T18:11:07.766Z,64.49
2022-11-06T18:13:35.430Z,64.26
2022-11-06T18:16:03.434Z,64.15
2022-11-06T18:18:31.000Z,64.29
2022-11-06T18:20:58.479Z,64.46
2022-11-06T18:23:26.094Z,63.86
2022-11-06T18:25:57.139Z,63.71
2022-11-06T18:28:25.200Z,63.88
2022-11-06T18:30:53.017Z,64.23
2022-11-06T18:33:20.624Z,64.31
2022-11-06T18:35:47.935Z,63.95
2022-11-06T18:38:16.647Z,64.21
2022-11-06T18:40:50.227Z,64.00
2022-11-06T18:43:19.195Z,63.71
2022-11-06T18:45:46.536Z,64.15
2022-11-06T18:48:18.322Z,64.37
2022-11-06T18:50:48.935Z,63.97
2022-11-06T18:53:16.498Z,63.82
2022-11-06T18:55:45.820Z,63.83
2022-11-06T18:58:13.874Z,64.11
2022-11-06T19:00:41.350Z,63.95
2022-11-06T19:03:08.737Z,64.26
2022-11-06T19:05:36.341Z,64.76
2022-11-06T19:08:04.863Z,64.87
2022-11-06T19:10:32.522Z,64.72
2022-11-06T19:13:00.129Z,64.64
2022-11-06T19:15:27.450Z,64.76
2022-11-06T19:17:54.943Z,64.77
2022-11-06T19:20:22.703Z,64.69
2022-11-06T19:22:51.201Z,64.66
2022-11-06T19:25:19.129Z,64.31
2022-11-06T19:27:47.244Z,64.36
2022-11-06T19:30:15.359Z,64.81
2022-11-06T19:32:43.703Z,65.17
2022-11-06T19:35:13.712Z,65.07
2022-11-06T19:37:41.518Z,65.27
2022-11-06T19:40:09.104Z,65.00
2022-11-06T19:42:36.991Z,65.35
2022-11-06T19:45:05.623Z,64.58
2022-11-06T19:47:33.003Z,64.42
2022-11-06T19:50:01.583Z,64.75
2022-11-06T19:52:41.828Z,64.58
2022-11-06T19:55:26.291Z,64.85
2022-11-06T19:57:57.827Z,64.16
2022-11-06T20:00:25.406Z,64.19
2022-11-06T20:02:52.986Z,64.19
2022-11-06T20:05:20.705Z,63.73
2022-11-06T20:07:48.033Z,63.20
2022-11-06T20:10:15.625Z,63.71
2022-11-06T20:12:42.975Z,63.74
2022-11-06T20:15:10.471Z,63.73
2022-11-06T20:17:38.070Z,63.78
2022-11-06T20:20:06.075Z,63.90
2022-11-06T20:22:33.413Z,64.10
2022-11-06T20:25:01.011Z,64.11
2022-11-06T20:27:28.555Z,64.09
2022-11-06T20:29:55.858Z,64.21
2022-11-06T20:32:23.498Z,64.59
2022-11-06T20:34:51.518Z,64.18
2022-11-06T20:37:18.869Z,64.05
2022-11-06T20:39:46.436Z,64.00
2022-11-06T20:42:13.769Z,64.07
2022-11-06T20:44:41.116Z,64.27
2022-11-06T20:47:08.691Z,64.23
2022-11-06T20:49:38.865Z,64.36
2022-11-06T20:52:15.269Z,64.49
2022-11-06T20:54:47.253Z,64.27
2022-11-06T20:57:15.962Z,64.54
2022-11-06T20:59:43.633Z,64.53
2022-11-06T21:02:11.617Z,64.12
2022-11-06T21:04:39.075Z,64.33
2022-11-06T21:07:06.663Z,64.37
2022-11-06T21:09:34.011Z,64.23
2022-11-06T21:12:01.350Z,64.46
2022-11-06T21:14:29.198Z,64.48
2022-11-06T21:16:57.106Z,64.64
2022-11-06T21:19:24.650Z,64.83
2022-11-06T21:21:56.557Z,64.87
2022-11-06T21:24:24.571Z,65.04
2022-11-06T21:26:55.091Z,65.07
2022-11-06T21:29:23.848Z,65.21
2022-11-06T21:31:51.775Z,65.26
2022-11-06T21:34:19.495Z,65.36
2022-11-06T21:36:47.476Z,65.19
2022-11-06T21:39:17.549Z,65.09
2022-11-06T21:41:45.461Z,64.84
2022-11-06T21:44:15.255Z,64.65
2022-11-06T21:46:45.697Z,64.70
2022-11-06T21:49:14.944Z,64.65
2022-11-06T21:51:43.433Z,64.46
2022-11-06T21:54:30.899Z,63.74
2022-11-06T21:56:58.706Z,64.04
2022-11-06T21:59:27.835Z,64.13
2022-11-06T22:01:55.801Z,64.25
2022-11-06T22:04:23.564Z,64.90
2022-11-06T22:06:52.544Z,64.87
2022-11-06T22:09:24.987Z,64.08
2022-11-06T22:11:53.644Z,64.55
2022-11-06T22:14:20.984Z,64.10
2022-11-06T22:16:51.171Z,63.93
2022-11-06T22:19:18.805Z,64.48
2022-11-06T22:21:46.143Z,64.15
2022-11-06T22:24:14.065Z,64.55
2022-11-06T22:26:41.685Z,64.81
2022-11-06T22:29:11.790Z,64.83
2022-11-06T22:31:39.191Z,64.99
2022-11-06T22:34:06.779Z,64.70
2022-11-06T22:36:36.389Z,64.44
2022-11-06T22:39:05.184Z,64.59
2022-11-06T22:41:32.777Z,64.56
2022-11-06T22:44:00.532Z,64.90
2022-11-06T22:46:28.976Z,65.33
2022-11-06T22:48:57.303Z,65.45
2022-11-06T22:51:29.891Z,65.34
2022-11-06T22:53:58.023Z,65.50
2022-11-06T22:56:26.881Z,65.26
2022-11-06T22:58:55.542Z,65.41
2022-11-06T23:01:24.914Z,65.70
2022-11-06T23:03:56.672Z,65.40
2022-11-06T23:06:25.444Z,65.58
2022-11-06T23:08:53.254Z,64.92
2022-11-06T23:11:22.089Z,64.98
2022-11-06T23:13:49.938Z,64.90
2022-11-06T23:16:40.998Z,65.06
2022-11-06T23:19:09.723Z,64.93
2022-11-06T23:21:37.363Z,64.78
2022-11-06T23:24:05.889Z,64.93
2022-11-06T23:26:33.674Z,64.88
2022-11-06T23:29:01.013Z,65.50
2022-11-06T23:31:28.516Z,65.39
2022-11-06T23:33:56.312Z,65.92
2022-11-06T23:36:23.670Z,65.70
2022-11-06T23:38:53.685Z,65.42
2022-11-06T23:41:40.081Z,65.40
2022-11-06T23:44:27.476Z,65.41
2022-11-06T23:46:55.165Z,65.20
2022-11-06T23:49:22.799Z,64.56
2022-11-06T23:51:50.199Z,64.97
2022-11-06T23:54:17.791Z,65.11
2022-11-06T23:56:45.104Z,65.05
2022-11-06T23:59:12.820Z,65.28
